Список аэропортов
Фактическая погода:

21 апреля, 18:50
Температура: +21°C (+21.0*)
Ветер: восточный 6 м/с
Давление: *763 мм
Без существ. явл.
Время (МСК)Темп. СВетерВлажностьДавлениеОблачностьОсадки
15:00+21В, 6 м/с27%1019 гПаясно
16:00+21В, 6 м/с26%1018 гПаясно
17:00+21В, 6 м/с25%1018 гПаясно
18:00+21В, 5 м/с24%1017 гПаясно
19:00+20В, 5 м/с24%1017 гПаясно
20:00+19В, 4 м/с24%1017 гПаясно
21:00+17В, 3 м/с35%1017 гПаясно
22:00+14СВ, 2 м/с48%1017 гПаясно
23:00+12СВ, 2 м/с59%1018 гПаясно
22 апреля
00:00+10СВ, 2 м/с68%1018 гПаясно
01:00+9СВ, 2 м/с72%1018 гПаясно
02:00+8СВ, 2 м/с78%1018 гПаясно
03:00+7СВ, 2 м/с82%1018 гПаясно
04:00+5СВ, 2 м/с88%1018 гПаясно
05:00+4СВ, 2 м/с94%1017 гПас прояснениями
06:00+3СВ, 1 м/с97%1017 гПаоблачно
07:00+3СВ, 2 м/с98%1017 гПаоблачно
08:00+3СВ, 1 м/с96%1016 гПаоблачно
09:00+6В, 2 м/с79%1015 гПаоблачно
10:00+10В, 3 м/с60%1014 гПаоблачно
11:00+14В, 5 м/с47%1013 гПаоблачно
12:00+17В, 6 м/с40%1012 гПаоблачно
13:00+19В, 7 м/с37%1012 гПаоблачно
14:00+20В, 7 м/с35%1011 гПаоблачно
15:00+20В, 8 м/с33%1010 гПаоблачно
16:00+21В, 8 м/с31%1009 гПас прояснениями
17:00+21В, 8 м/с31%1009 гПас прояснениями
18:00+21В, 8 м/с32%1008 гПас прояснениями
19:00+20В, 8 м/с33%1008 гПас прояснениями
20:00+19В, 8 м/с35%1008 гПаоблачно
21:00+18В, 8 м/с35%1008 гПаоблачно
22:00+16В, 9 м/с40%1008 гПас прояснениями
23:00+14В, 10 м/с42%1009 гПаоблачно
23 апреля
00:00+14В, 9 м/с44%1008 гПаоблачно
01:00+13В, 8 м/с51%1008 гПаоблачно
02:00+13В, 8 м/с56%1007 гПаоблачно
03:00+12В, 9 м/с58%1007 гПаоблачно
04:00+12В, 8 м/с59%1007 гПаоблачно
05:00+11В, 8 м/с63%1007 гПаоблачно
06:00+11В, 7 м/с68%1006 гПаоблачно
07:00+10В, 7 м/с69%1006 гПаоблачно
08:00+10В, 7 м/с68%1006 гПаоблачно
09:00+11В, 7 м/с63%1005 гПаясно
10:00+13В, 7 м/с58%1005 гПаясно
11:00+15В, 7 м/с52%1004 гПаясно
12:00+17В, 7 м/с46%1004 гПаясно
13:00+19В, 8 м/с43%1003 гПаясно
14:00+20В, 8 м/с42%1003 гПаясно
15:00+21В, 7 м/с36%1002 гПас прояснениями